createdAt,value
2023-02-14T00:01:26.112Z,27.60
2023-02-14T00:03:54.706Z,26.70
2023-02-14T00:06:22.291Z,27.29
2023-02-14T00:08:52.320Z,25.94
2023-02-14T00:11:20.470Z,27.28
2023-02-14T00:14:06.676Z,28.47
2023-02-14T00:16:34.166Z,28.60
2023-02-14T00:19:04.420Z,25.17
2023-02-14T00:21:35.997Z,26.23
2023-02-14T00:24:05.784Z,26.26
2023-02-14T00:26:33.507Z,26.51
2023-02-14T00:29:01.336Z,26.37
2023-02-14T00:31:28.945Z,24.78
2023-02-14T00:33:56.867Z,25.53
2023-02-14T00:36:24.549Z,25.76
2023-02-14T00:38:52.622Z,25.30
2023-02-14T00:41:20.298Z,25.23
2023-02-14T00:43:53.536Z,25.91
2023-02-14T00:46:22.819Z,26.45
2023-02-14T00:48:51.772Z,25.77
2023-02-14T00:51:23.198Z,27.81
2023-02-14T00:53:52.019Z,25.23
2023-02-14T00:56:23.813Z,25.89
2023-02-14T00:58:51.963Z,25.26
2023-02-14T01:01:20.105Z,26.25
2023-02-14T01:03:48.349Z,25.83
2023-02-14T01:06:29.492Z,26.45
2023-02-14T01:08:58.761Z,27.39
2023-02-14T01:11:35.353Z,26.05
2023-02-14T01:14:09.530Z,25.92
2023-02-14T01:16:42.201Z,26.60
2023-02-14T01:19:15.767Z,25.42
2023-02-14T01:21:48.780Z,25.41
2023-02-14T01:24:16.689Z,24.66
2023-02-14T01:26:52.436Z,25.85
2023-02-14T01:29:20.311Z,25.92
2023-02-14T01:31:49.317Z,24.80
2023-02-14T01:34:18.128Z,24.67
2023-02-14T01:36:47.826Z,24.88
2023-02-14T01:39:16.342Z,24.82
2023-02-14T01:41:54.038Z,25.60
2023-02-14T01:44:33.361Z,25.94
2023-02-14T01:47:04.948Z,25.10
2023-02-14T01:49:44.005Z,24.79
2023-02-14T01:52:25.058Z,24.43
2023-02-14T01:54:58.818Z,24.83
2023-02-14T01:57:35.954Z,24.39
2023-02-14T02:00:27.474Z,25.58
2023-02-14T02:02:58.856Z,25.00
2023-02-14T02:05:29.797Z,24.59
2023-02-14T02:08:02.526Z,25.96
2023-02-14T02:10:30.120Z,24.29
2023-02-14T02:13:10.367Z,23.58
2023-02-14T02:15:50.006Z,24.25
2023-02-14T02:18:31.733Z,23.30
2023-02-14T02:21:19.090Z,23.23
2023-02-14T02:24:09.736Z,22.78
2023-02-14T02:27:18.975Z,22.16
2023-02-14T02:30:16.399Z,22.31
2023-02-14T02:32:56.030Z,23.81
2023-02-14T02:36:01.345Z,22.52
2023-02-14T02:39:06.433Z,22.22
2023-02-14T02:41:50.868Z,21.80
2023-02-14T02:44:27.116Z,21.53
2023-02-14T02:47:29.050Z,22.68
2023-02-14T02:50:23.140Z,21.98
2023-02-14T02:53:17.841Z,22.68
2023-02-14T02:56:24.920Z,22.22
2023-02-14T02:59:01.553Z,22.46
2023-02-14T03:01:36.033Z,23.66
2023-02-14T03:04:27.721Z,22.59
2023-02-14T03:06:56.780Z,22.71
2023-02-14T03:09:37.811Z,24.41
2023-02-14T03:12:35.324Z,21.84
2023-02-14T03:15:36.761Z,21.86
2023-02-14T03:18:44.816Z,22.22
2023-02-14T03:21:31.625Z,21.81
2023-02-14T03:24:33.637Z,21.60
2023-02-14T03:27:28.030Z,23.70
2023-02-14T03:30:20.335Z,23.83
2023-02-14T03:33:16.863Z,22.56
2023-02-14T03:36:24.197Z,24.58
2023-02-14T03:39:23.523Z,24.16
2023-02-14T03:42:06.075Z,22.85
2023-02-14T03:44:38.938Z,22.10
2023-02-14T03:47:17.813Z,22.65
2023-02-14T03:49:51.432Z,21.92
2023-02-14T03:52:28.012Z,22.29
2023-02-14T03:54:59.349Z,22.79
2023-02-14T03:57:37.644Z,22.09
2023-02-14T04:00:06.766Z,24.51
2023-02-14T04:02:48.757Z,23.34
2023-02-14T04:05:29.623Z,23.55
2023-02-14T04:08:12.664Z,24.59
2023-02-14T04:10:43.174Z,25.41
2023-02-14T04:13:24.683Z,26.28
2023-02-14T04:15:56.007Z,24.61
2023-02-14T04:18:53.086Z,24.54
2023-02-14T04:21:21.761Z,24.10
2023-02-14T04:23:50.020Z,24.36
2023-02-14T04:26:28.174Z,26.39
2023-02-14T04:28:56.092Z,24.89
2023-02-14T04:31:25.836Z,24.07
2023-02-14T04:33:54.208Z,23.38
2023-02-14T04:36:32.281Z,22.72
2023-02-14T04:39:06.598Z,23.50
2023-02-14T04:41:43.177Z,23.29
2023-02-14T04:44:16.711Z,23.95
2023-02-14T04:46:47.274Z,23.59
2023-02-14T04:49:16.001Z,23.42
2023-02-14T04:51:47.841Z,24.11
2023-02-14T04:54:25.775Z,23.83
2023-02-14T04:56:59.423Z,23.45
2023-02-14T04:59:30.425Z,23.19
2023-02-14T05:02:03.798Z,23.94
2023-02-14T05:04:31.965Z,24.25
2023-02-14T05:07:07.976Z,23.13
2023-02-14T05:09:35.821Z,23.33
2023-02-14T05:12:03.690Z,24.24
2023-02-14T05:14:31.369Z,23.42
2023-02-14T05:16:58.880Z,23.16
2023-02-14T05:19:26.361Z,22.99
2023-02-14T05:21:53.903Z,22.64
2023-02-14T05:24:21.594Z,23.25
2023-02-14T05:26:50.243Z,23.32
2023-02-14T05:29:22.645Z,24.07
2023-02-14T05:31:51.212Z,24.24
2023-02-14T05:34:20.027Z,23.82
2023-02-14T05:36:49.367Z,22.94
2023-02-14T05:39:20.030Z,22.73
2023-02-14T05:41:48.730Z,22.87
2023-02-14T05:44:26.219Z,22.47
2023-02-14T05:46:58.133Z,22.72
2023-02-14T05:49:25.962Z,22.80
2023-02-14T05:51:56.989Z,22.41
2023-02-14T05:54:25.634Z,22.63
2023-02-14T05:56:54.008Z,22.94
2023-02-14T05:59:22.582Z,22.61
2023-02-14T06:01:51.033Z,22.79
2023-02-14T06:04:19.642Z,22.60
2023-02-14T06:06:50.302Z,23.11
2023-02-14T06:09:19.988Z,23.52
2023-02-14T06:11:48.600Z,23.27
2023-02-14T06:14:16.833Z,23.12
2023-02-14T06:16:44.704Z,22.53
2023-02-14T06:19:13.005Z,22.33
2023-02-14T06:21:41.530Z,22.75
2023-02-14T06:24:10.060Z,22.75
2023-02-14T06:26:38.074Z,22.50
2023-02-14T06:29:06.867Z,22.80
2023-02-14T06:31:35.247Z,23.05
2023-02-14T06:34:03.092Z,21.98
2023-02-14T06:36:31.640Z,22.38
2023-02-14T06:38:59.424Z,24.65
2023-02-14T06:41:28.202Z,23.33
2023-02-14T06:43:56.069Z,24.58
2023-02-14T06:46:27.570Z,24.35
2023-02-14T06:48:55.561Z,24.81
2023-02-14T06:51:24.412Z,22.37
2023-02-14T06:53:52.588Z,22.35
2023-02-14T06:56:20.329Z,21.83
2023-02-14T06:58:48.518Z,21.69
2023-02-14T07:01:16.486Z,21.56
2023-02-14T07:03:44.335Z,21.77
2023-02-14T07:06:14.178Z,22.10
2023-02-14T07:08:43.085Z,21.23
2023-02-14T07:11:12.004Z,22.18
2023-02-14T07:13:40.883Z,21.52
2023-02-14T07:16:09.181Z,20.84
2023-02-14T07:18:38.084Z,23.11
2023-02-14T07:21:06.761Z,23.15
2023-02-14T07:23:35.014Z,21.71
2023-02-14T07:26:02.665Z,21.96
2023-02-14T07:28:30.546Z,21.90
2023-02-14T07:31:02.458Z,21.31
2023-02-14T07:33:33.657Z,20.73
2023-02-14T07:36:06.131Z,20.12
2023-02-14T07:38:35.818Z,19.37
2023-02-14T07:41:05.924Z,19.93
2023-02-14T07:43:34.840Z,19.91
2023-02-14T07:46:03.639Z,17.71
2023-02-14T07:48:33.843Z,18.74
2023-02-14T07:51:08.582Z,17.71
2023-02-14T07:53:36.438Z,16.76
2023-02-14T07:56:10.386Z,16.60
2023-02-14T07:58:44.389Z,17.40
2023-02-14T08:01:11.967Z,16.31
2023-02-14T08:03:39.603Z,15.28
2023-02-14T08:06:07.153Z,15.59
2023-02-14T08:08:34.648Z,15.28
2023-02-14T08:11:04.061Z,16.19
2023-02-14T08:13:38.622Z,16.63
2023-02-14T08:16:07.998Z,15.10
2023-02-14T08:18:43.323Z,15.82
2023-02-14T08:21:13.369Z,16.26
2023-02-14T08:23:41.004Z,15.84
2023-02-14T08:26:22.736Z,15.72
2023-02-14T08:28:52.988Z,14.70
2023-02-14T08:31:36.221Z,15.00
